createdAt,value
2022-11-20T00:01:06.005Z,33.95
2022-11-20T00:02:28.525Z,36.15
2022-11-20T00:03:52.376Z,35.22
2022-11-20T00:05:20.014Z,41.22
2022-11-20T00:06:40.572Z,37.55
2022-11-20T00:08:02.771Z,40.53
2022-11-20T00:09:24.634Z,36.95
2022-11-20T00:10:47.199Z,34.13
2022-11-20T00:12:07.688Z,35.72
2022-11-20T00:13:34.039Z,37.85
2022-11-20T00:14:55.224Z,35.60
2022-11-20T00:16:17.295Z,36.33
2022-11-20T00:17:37.765Z,38.42
2022-11-20T00:19:05.164Z,37.15
2022-11-20T00:20:26.831Z,41.58
2022-11-20T00:21:47.595Z,39.25
2022-11-20T00:23:13.814Z,37.25
2022-11-20T00:24:38.945Z,38.50
2022-11-20T00:26:08.744Z,37.85
2022-11-20T00:27:31.902Z,35.83
2022-11-20T00:28:54.078Z,37.08
2022-11-20T00:30:15.380Z,38.47
2022-11-20T00:31:39.586Z,32.85
2022-11-20T00:33:01.405Z,36.80
2022-11-20T00:34:28.551Z,35.60
2022-11-20T00:35:49.236Z,36.03
2022-11-20T00:37:11.765Z,37.90
2022-11-20T00:38:32.582Z,32.55
2022-11-20T00:39:53.362Z,36.53
2022-11-20T00:41:17.919Z,34.75
2022-11-20T00:42:39.302Z,38.72
2022-11-20T00:44:05.661Z,32.47
2022-11-20T00:45:32.708Z,33.47
2022-11-20T00:47:03.446Z,33.35
2022-11-20T00:48:28.204Z,35.35
2022-11-20T00:49:51.194Z,30.77
2022-11-20T00:51:13.067Z,32.65
2022-11-20T00:52:34.204Z,33.45
2022-11-20T00:54:00.388Z,35.70
2022-11-20T00:55:28.223Z,34.78
2022-11-20T00:56:55.041Z,34.22
2022-11-20T00:58:20.663Z,33.22
2022-11-20T00:59:42.967Z,33.10
2022-11-20T01:01:06.898Z,34.00
2022-11-20T01:02:29.770Z,30.52
2022-11-20T01:03:52.977Z,32.83
2022-11-20T01:05:15.874Z,31.25
2022-11-20T01:06:40.471Z,33.60
2022-11-20T01:08:01.120Z,34.25
2022-11-20T01:09:24.977Z,32.13
2022-11-20T01:10:46.020Z,31.92
2022-11-20T01:12:14.574Z,34.17
2022-11-20T01:13:36.697Z,29.02
2022-11-20T01:14:59.505Z,33.00
2022-11-20T01:16:25.354Z,38.22
2022-11-20T01:17:46.626Z,40.83
2022-11-20T01:19:09.974Z,40.53
2022-11-20T01:20:36.721Z,35.47
2022-11-20T01:22:00.291Z,43.22
2022-11-20T01:23:21.058Z,36.35
2022-11-20T01:24:47.781Z,39.33
2022-11-20T01:26:12.872Z,39.33
2022-11-20T01:27:34.183Z,38.38
2022-11-20T01:29:03.266Z,36.40
2022-11-20T01:30:24.874Z,37.50
2022-11-20T01:31:45.535Z,37.00
2022-11-20T01:33:06.043Z,39.88
2022-11-20T01:34:34.789Z,37.75
2022-11-20T01:36:05.922Z,31.90
2022-11-20T01:37:33.105Z,30.58
2022-11-20T01:38:57.812Z,29.75
2022-11-20T01:40:18.628Z,30.00
2022-11-20T01:41:39.760Z,30.10
2022-11-20T01:43:16.114Z,36.88
2022-11-20T01:44:55.399Z,29.60
2022-11-20T01:46:18.164Z,30.77
2022-11-20T01:47:42.160Z,33.97
2022-11-20T01:49:04.698Z,33.30
2022-11-20T01:50:31.830Z,31.60
2022-11-20T01:52:00.370Z,28.67
2022-11-20T01:53:27.672Z,34.88
2022-11-20T01:54:50.558Z,37.92
2022-11-20T01:56:13.227Z,34.10
2022-11-20T01:57:38.858Z,31.63
2022-11-20T01:59:01.299Z,33.30
2022-11-20T02:00:22.692Z,35.25
2022-11-20T02:03:07.465Z,31.38
2022-11-20T02:04:32.609Z,33.13
2022-11-20T02:05:57.904Z,34.78
2022-11-20T02:07:20.788Z,31.95
2022-11-20T02:08:43.058Z,34.13
2022-11-20T02:10:06.509Z,33.22
2022-11-20T02:11:28.631Z,32.40
2022-11-20T02:12:50.558Z,33.50
2022-11-20T02:14:11.506Z,35.47
2022-11-20T02:15:34.326Z,32.70
2022-11-20T02:16:58.059Z,33.03
2022-11-20T02:18:21.831Z,32.83
2022-11-20T02:19:42.736Z,32.35
2022-11-20T02:21:09.616Z,34.00
2022-11-20T02:22:36.494Z,34.22
2022-11-20T02:24:06.019Z,35.00
2022-11-20T02:25:35.352Z,37.53
2022-11-20T02:28:21.820Z,31.55
2022-11-20T02:29:45.952Z,32.95
2022-11-20T02:31:06.584Z,32.38
2022-11-20T02:32:34.489Z,34.47
2022-11-20T02:33:58.901Z,34.83
2022-11-20T02:35:45.753Z,33.35
2022-11-20T02:37:07.039Z,37.05
2022-11-20T02:38:30.480Z,34.53
2022-11-20T02:39:52.724Z,32.42
2022-11-20T02:41:13.082Z,34.15
2022-11-20T02:42:33.720Z,33.75
2022-11-20T02:43:54.532Z,37.20
2022-11-20T02:45:15.085Z,42.15
2022-11-20T02:46:36.219Z,40.88
2022-11-20T02:47:57.148Z,38.45
2022-11-20T02:49:18.042Z,39.53
2022-11-20T02:50:39.511Z,35.65
2022-11-20T02:52:00.120Z,37.85
2022-11-20T02:53:20.485Z,35.17
2022-11-20T02:54:41.529Z,35.80
2022-11-20T02:56:03.847Z,37.75
2022-11-20T02:57:24.141Z,36.70
2022-11-20T02:58:45.750Z,35.78
2022-11-20T03:00:07.603Z,38.22
2022-11-20T03:01:28.218Z,36.95
2022-11-20T03:02:48.920Z,36.38
2022-11-20T03:04:09.436Z,38.67
2022-11-20T03:05:29.992Z,34.33
2022-11-20T03:06:50.709Z,36.65
2022-11-20T03:08:11.923Z,37.08
2022-11-20T03:09:32.522Z,35.37
2022-11-20T03:10:53.222Z,35.75
2022-11-20T03:12:15.205Z,34.53
2022-11-20T03:13:36.056Z,38.08
2022-11-20T03:14:56.748Z,39.13
2022-11-20T03:16:19.498Z,35.28
2022-11-20T03:17:39.934Z,34.30
2022-11-20T03:19:00.615Z,34.08
2022-11-20T03:20:21.141Z,38.28
2022-11-20T03:21:41.509Z,36.22
2022-11-20T03:23:03.003Z,37.95
2022-11-20T03:24:23.364Z,34.95
2022-11-20T03:25:43.848Z,37.80
2022-11-20T03:27:04.668Z,34.15
2022-11-20T03:28:26.549Z,40.03
2022-11-20T03:29:46.733Z,35.40
2022-11-20T03:31:09.286Z,34.65
2022-11-20T03:32:30.254Z,38.30
2022-11-20T03:33:51.343Z,39.92
2022-11-20T03:35:11.870Z,32.95
2022-11-20T03:36:32.890Z,39.17
2022-11-20T03:37:53.743Z,35.55
2022-11-20T03:39:14.456Z,40.92
2022-11-20T03:40:35.913Z,37.08
2022-11-20T03:43:16.652Z,36.05
2022-11-20T03:44:38.289Z,32.20
2022-11-20T03:45:59.145Z,39.72
2022-11-20T03:47:19.837Z,36.95
2022-11-20T03:48:40.454Z,38.78
2022-11-20T03:50:00.917Z,39.90
2022-11-20T03:51:23.366Z,41.45
2022-11-20T03:52:44.031Z,42.47
2022-11-20T03:54:08.557Z,45.78
2022-11-20T03:55:29.093Z,40.58
2022-11-20T03:56:49.765Z,45.15
2022-11-20T03:58:10.588Z,40.83
2022-11-20T03:59:31.131Z,42.67
2022-11-20T04:00:53.216Z,41.03
2022-11-20T04:03:34.142Z,37.03
2022-11-20T04:04:55.024Z,39.03
2022-11-20T04:06:17.762Z,43.35
2022-11-20T04:07:38.521Z,43.05
2022-11-20T04:08:59.665Z,46.03
2022-11-20T04:10:19.860Z,49.15
2022-11-20T04:11:41.260Z,49.03
2022-11-20T04:13:01.930Z,48.17
2022-11-20T04:14:23.031Z,51.03
2022-11-20T04:15:43.890Z,54.50
2022-11-20T04:17:06.051Z,56.42
2022-11-20T04:18:26.768Z,51.90
2022-11-20T04:19:47.728Z,53.08
2022-11-20T04:21:08.659Z,54.55
2022-11-20T04:22:30.556Z,57.67
2022-11-20T04:25:11.281Z,58.35
2022-11-20T04:26:31.996Z,56.65
2022-11-20T04:27:53.748Z,55.92
2022-11-20T04:29:14.452Z,58.30
2022-11-20T04:30:34.875Z,58.47
2022-11-20T04:31:55.501Z,54.47
2022-11-20T04:33:18.710Z,51.30
2022-11-20T04:34:39.169Z,50.30
2022-11-20T04:36:02.431Z,54.33
2022-11-20T04:37:22.964Z,49.80
2022-11-20T04:38:43.763Z,47.95
2022-11-20T04:40:04.629Z,44.97
2022-11-20T04:41:26.749Z,45.80
2022-11-20T04:42:47.448Z,46.63
2022-11-20T04:44:07.900Z,43.28
2022-11-20T04:45:28.524Z,45.63
2022-11-20T04:46:49.214Z,47.28
2022-11-20T04:48:10.001Z,50.53
2022-11-20T04:49:31.937Z,41.15
2022-11-20T04:50:53.335Z,42.95
2022-11-20T04:52:14.309Z,47.33
2022-11-20T04:53:34.756Z,46.03
2022-11-20T04:54:55.505Z,46.47
2022-11-20T04:56:16.521Z,42.95
2022-11-20T04:57:36.989Z,44.25
2022-11-20T04:59:01.385Z,41.78
2022-11-20T05:00:22.012Z,39.53
2022-11-20T05:01:42.762Z,39.35
2022-11-20T05:03:03.718Z,40.38
2022-11-20T05:04:24.339Z,39.80
2022-11-20T05:05:46.064Z,41.10
2022-11-20T05:07:06.696Z,43.20
2022-11-20T05:08:27.379Z,41.20
2022-11-20T05:09:48.096Z,39.17
2022-11-20T05:11:10.952Z,38.80
2022-11-20T05:12:32.501Z,39.60
2022-11-20T05:13:53.512Z,42.35
2022-11-20T05:15:14.311Z,41.67
2022-11-20T05:16:35.763Z,45.15
2022-11-20T05:17:56.055Z,42.80
2022-11-20T05:19:16.673Z,39.63
2022-11-20T05:20:36.954Z,40.85
2022-11-20T05:21:58.979Z,43.63
2022-11-20T05:23:19.428Z,42.78
2022-11-20T05:24:39.980Z,39.00
2022-11-20T05:26:01.418Z,40.67
2022-11-20T05:27:21.882Z,36.92
2022-11-20T05:28:42.632Z,37.75
2022-11-20T05:30:03.778Z,44.03
2022-11-20T05:31:28.035Z,39.17
2022-11-20T05:32:49.097Z,43.90
2022-11-20T05:34:09.549Z,43.65
2022-11-20T05:35:29.929Z,42.35
2022-11-20T05:36:50.304Z,41.25
2022-11-20T05:38:12.466Z,44.73
2022-11-20T05:39:32.967Z,41.05
2022-11-20T05:40:53.653Z,41.05
2022-11-20T05:42:13.999Z,39.08
2022-11-20T05:43:34.670Z,45.47
2022-11-20T05:44:55.208Z,39.10
2022-11-20T05:46:17.328Z,42.17
2022-11-20T05:47:37.879Z,42.00
2022-11-20T05:48:59.656Z,39.03
2022-11-20T05:50:20.081Z,46.35
2022-11-20T05:51:40.294Z,46.50
2022-11-20T05:53:00.845Z,40.83
2022-11-20T05:54:22.852Z,40.95
2022-11-20T05:55:43.606Z,53.42
2022-11-20T05:57:04.329Z,38.67
2022-11-20T05:58:24.875Z,43.85
2022-11-20T05:59:45.475Z,47.23
2022-11-20T06:01:08.058Z,41.22
2022-11-20T06:02:28.729Z,42.42
2022-11-20T06:03:49.914Z,56.90
2022-11-20T06:05:10.615Z,46.13
2022-11-20T06:06:31.111Z,44.37
2022-11-20T06:07:51.741Z,43.13
2022-11-20T06:09:12.465Z,41.75
2022-11-20T06:10:34.542Z,41.13
2022-11-20T06:11:54.833Z,42.78
2022-11-20T06:13:15.129Z,46.03
2022-11-20T06:14:35.814Z,43.17
2022-11-20T06:15:56.643Z,42.88
2022-11-20T06:17:17.177Z,45.38
2022-11-20T06:18:38.331Z,41.60
2022-11-20T06:19:58.958Z,44.47
2022-11-20T06:21:21.823Z,45.42
2022-11-20T06:22:42.516Z,49.58
2022-11-20T06:24:03.352Z,47.15
2022-11-20T06:25:24.002Z,40.67
2022-11-20T06:26:46.110Z,48.83
2022-11-20T06:28:06.520Z,49.90
2022-11-20T06:29:31.410Z,47.80
2022-11-20T06:30:54.374Z,50.13
2022-11-20T06:32:15.023Z,48.83
2022-11-20T06:33:35.322Z,46.63
2022-11-20T06:34:55.641Z,45.35
2022-11-20T06:36:19.264Z,43.95
2022-11-20T06:37:40.029Z,43.67
2022-11-20T06:39:00.677Z,43.67
2022-11-20T06:40:21.284Z,48.20
2022-11-20T06:41:41.917Z,41.43
2022-11-20T06:43:03.829Z,44.33
2022-11-20T06:44:24.470Z,42.88
2022-11-20T06:45:44.839Z,44.30
2022-11-20T06:47:05.412Z,44.37
2022-11-20T06:48:27.357Z,42.45
2022-11-20T06:49:47.852Z,46.83
2022-11-20T06:51:08.823Z,50.58
2022-11-20T06:52:29.016Z,44.58
2022-11-20T06:53:50.075Z,43.20
2022-11-20T06:55:10.776Z,41.53
2022-11-20T06:56:31.489Z,45.60
2022-11-20T06:57:55.852Z,40.88
2022-11-20T06:59:17.993Z,52.28
2022-11-20T07:00:38.719Z,50.40
2022-11-20T07:01:59.743Z,43.78
2022-11-20T07:03:20.162Z,50.42
2022-11-20T07:04:40.952Z,47.53
2022-11-20T07:06:02.112Z,45.70
2022-11-20T07:07:22.540Z,49.47
2022-11-20T07:08:42.942Z,43.10
2022-11-20T07:10:03.719Z,50.37
2022-11-20T07:11:25.328Z,48.20
2022-11-20T07:12:50.685Z,48.88
2022-11-20T07:14:11.022Z,49.58
2022-11-20T07:15:32.812Z,51.72
2022-11-20T07:16:53.270Z,49.03
2022-11-20T07:18:14.160Z,51.30
2022-11-20T07:19:34.544Z,42.75
2022-11-20T07:20:55.090Z,48.58
2022-11-20T07:22:15.864Z,52.47
2022-11-20T07:23:36.921Z,49.63
2022-11-20T07:24:57.338Z,47.90
2022-11-20T07:26:18.231Z,48.83
2022-11-20T07:27:38.749Z,42.87
2022-11-20T07:28:59.251Z,54.95
2022-11-20T07:30:20.174Z,42.35
2022-11-20T07:31:41.808Z,45.88
2022-11-20T07:33:02.552Z,50.13
2022-11-20T07:34:23.434Z,46.33
2022-11-20T07:35:43.919Z,47.75
2022-11-20T07:37:10.074Z,52.15
2022-11-20T07:38:30.954Z,45.92
2022-11-20T07:39:51.467Z,44.83
2022-11-20T07:41:12.188Z,46.42
2022-11-20T07:42:32.872Z,46.72
2022-11-20T07:43:54.640Z,48.90
2022-11-20T07:45:15.206Z,51.63
2022-11-20T07:46:35.968Z,46.40
2022-11-20T07:47:57.870Z,43.90
2022-11-20T07:49:19.723Z,44.55
2022-11-20T07:50:40.382Z,49.08
2022-11-20T07:52:04.676Z,51.45
2022-11-20T07:53:25.985Z,51.83
2022-11-20T07:54:46.116Z,51.70
2022-11-20T07:56:08.189Z,43.97
2022-11-20T07:57:28.702Z,52.70
2022-11-20T07:58:49.291Z,45.63
2022-11-20T08:00:11.693Z,50.72
2022-11-20T08:01:32.605Z,44.70
2022-11-20T08:02:53.252Z,49.33
2022-11-20T08:04:15.218Z,49.75
2022-11-20T08:05:35.720Z,42.00
2022-11-20T08:06:56.110Z,46.30
2022-11-20T08:08:16.681Z,47.70
2022-11-20T08:09:37.127Z,52.85
2022-11-20T08:10:58.016Z,44.15
2022-11-20T08:12:20.247Z,50.75
2022-11-20T08:13:41.111Z,45.83
2022-11-20T08:15:01.640Z,51.83
2022-11-20T08:16:22.270Z,45.60
2022-11-20T08:17:48.914Z,51.35
2022-11-20T08:19:19.276Z,47.47
2022-11-20T08:20:40.091Z,48.80
2022-11-20T08:22:00.773Z,46.88
2022-11-20T08:23:21.413Z,56.00
2022-11-20T08:24:41.998Z,48.47
2022-11-20T08:26:02.514Z,49.53
2022-11-20T08:27:22.969Z,48.22
2022-11-20T08:28:43.325Z,52.13
2022-11-20T08:30:04.922Z,52.40
2022-11-20T08:31:26.844Z,56.22
2022-11-20T08:32:47.400Z,52.72
2022-11-20T08:34:09.842Z,47.15
2022-11-20T08:35:35.428Z,46.30
2022-11-20T08:36:56.217Z,54.88
2022-11-20T08:38:16.892Z,50.05
2022-11-20T08:39:37.373Z,45.95
2022-11-20T08:40:58.489Z,49.33
2022-11-20T08:42:19.095Z,50.38
2022-11-20T08:43:40.267Z,49.80
2022-11-20T08:45:00.769Z,51.33
2022-11-20T08:46:21.688Z,47.25
2022-11-20T08:47:42.311Z,52.40
2022-11-20T08:49:03.012Z,49.75
2022-11-20T08:50:23.947Z,52.35
2022-11-20T08:51:45.978Z,54.58
2022-11-20T08:53:06.458Z,50.17
2022-11-20T08:54:27.463Z,52.03
2022-11-20T08:55:47.772Z,49.53
2022-11-20T08:57:08.603Z,53.17
2022-11-20T08:58:30.943Z,49.22
2022-11-20T09:00:05.694Z,52.22
2022-11-20T09:01:27.211Z,51.38
2022-11-20T09:02:48.019Z,55.33
2022-11-20T09:04:08.383Z,55.15
2022-11-20T09:05:30.200Z,55.17
2022-11-20T09:06:52.278Z,53.10
2022-11-20T09:08:12.992Z,54.33
2022-11-20T09:09:33.437Z,52.03
2022-11-20T09:10:54.241Z,56.35
2022-11-20T09:12:14.909Z,53.92
2022-11-20T09:13:36.637Z,53.20
2022-11-20T09:16:17.286Z,52.15
2022-11-20T09:17:37.793Z,55.42
2022-11-20T09:19:28.159Z,55.13
2022-11-20T09:20:38.757Z,54.25
2022-11-20T09:22:00.490Z,50.40
2022-11-20T09:23:20.969Z,55.75
2022-11-20T09:24:41.718Z,46.90
2022-11-20T09:26:03.891Z,55.88
2022-11-20T09:27:24.338Z,51.75
2022-11-20T09:28:45.041Z,48.25
2022-11-20T09:30:06.834Z,50.03
2022-11-20T09:32:47.827Z,52.03
2022-11-20T09:34:08.436Z,53.72
2022-11-20T09:35:28.894Z,52.75
2022-11-20T09:36:49.041Z,54.15
2022-11-20T09:38:11.223Z,52.97
2022-11-20T09:39:33.018Z,56.00
2022-11-20T09:40:58.030Z,58.85
2022-11-20T09:42:27.638Z,54.03
2022-11-20T09:43:52.882Z,59.15
2022-11-20T09:45:18.615Z,59.50
2022-11-20T09:46:44.650Z,64.82
2022-11-20T09:48:14.580Z,56.70
2022-11-20T09:49:46.939Z,55.05
2022-11-20T09:51:14.288Z,63.83
2022-11-20T09:52:39.141Z,58.47
2022-11-20T09:54:08.611Z,59.95
2022-11-20T09:55:30.386Z,54.38
2022-11-20T09:56:52.693Z,58.88
2022-11-20T09:58:17.300Z,61.28
2022-11-20T09:59:40.329Z,58.17
2022-11-20T10:01:04.879Z,60.30
2022-11-20T10:02:29.769Z,57.60
2022-11-20T10:03:57.188Z,57.67
2022-11-20T10:05:19.961Z,61.42
2022-11-20T10:06:45.152Z,54.78
2022-11-20T10:08:14.899Z,56.22
2022-11-20T10:09:39.030Z,55.17
2022-11-20T10:11:06.006Z,61.33
2022-11-20T10:12:34.721Z,59.13
2022-11-20T10:14:03.443Z,58.70
2022-11-20T10:15:30.644Z,56.38
2022-11-20T10:16:59.934Z,55.92
2022-11-20T10:18:31.849Z,55.00
2022-11-20T10:21:26.735Z,57.28
2022-11-20T10:22:58.066Z,60.45
2022-11-20T10:24:37.690Z,61.22
2022-11-20T10:26:02.737Z,64.28
2022-11-20T10:27:42.543Z,63.10
2022-11-20T10:29:11.153Z,56.58
2022-11-20T10:30:36.023Z,62.42
2022-11-20T10:32:00.747Z,68.50
2022-11-20T10:33:23.892Z,58.88
2022-11-20T10:34:50.188Z,64.00
2022-11-20T10:36:17.011Z,68.82
2022-11-20T10:37:38.962Z,58.15
2022-11-20T10:39:06.400Z,60.42
2022-11-20T10:40:33.432Z,66.80
2022-11-20T10:41:54.035Z,67.45
2022-11-20T10:43:17.547Z,62.10
2022-11-20T10:44:40.732Z,60.55
2022-11-20T10:46:05.643Z,68.28
2022-11-20T10:47:26.792Z,70.55
2022-11-20T10:48:47.584Z,69.88
2022-11-20T10:50:13.810Z,68.75
2022-11-20T10:51:39.646Z,71.68
2022-11-20T10:53:06.281Z,67.63
2022-11-20T10:54:33.451Z,77.07
2022-11-20T10:56:01.470Z,76.63
2022-11-20T10:57:32.601Z,75.25
2022-11-20T10:59:04.555Z,71.00
2022-11-20T11:00:25.262Z,80.88
2022-11-20T11:01:45.686Z,75.38
2022-11-20T11:03:19.041Z,64.13
2022-11-20T11:04:43.589Z,65.75
2022-11-20T11:06:09.064Z,67.20
2022-11-20T11:07:34.939Z,72.30
2022-11-20T11:08:57.789Z,65.60
2022-11-20T11:10:19.997Z,68.82
2022-11-20T11:11:41.866Z,71.18
2022-11-20T11:13:02.499Z,75.95
2022-11-20T11:14:23.133Z,78.38
2022-11-20T11:15:44.194Z,78.05
2022-11-20T11:17:04.740Z,73.55
2022-11-20T11:18:26.847Z,74.60
2022-11-20T11:21:07.348Z,86.40
2022-11-20T11:22:30.023Z,83.88
2022-11-20T11:24:13.477Z,82.88
2022-11-20T11:25:39.695Z,81.22
2022-11-20T11:27:03.099Z,78.53
2022-11-20T11:28:24.176Z,87.75
2022-11-20T11:29:45.223Z,88.22
2022-11-20T11:31:05.985Z,80.53
2022-11-20T11:32:26.315Z,81.25
2022-11-20T11:33:46.644Z,79.70
2022-11-20T11:35:20.303Z,82.30
2022-11-20T11:36:41.577Z,86.65
2022-11-20T11:38:07.193Z,82.03
2022-11-20T11:39:28.603Z,74.18
2022-11-20T11:42:13.572Z,92.25
2022-11-20T11:43:37.939Z,87.25
2022-11-20T11:45:00.556Z,89.55
2022-11-20T11:46:32.811Z,92.63
2022-11-20T11:47:54.492Z,89.03
2022-11-20T11:50:37.433Z,91.10
2022-11-20T11:52:04.754Z,90.20
2022-11-20T11:53:27.509Z,89.70
2022-11-20T11:54:52.530Z,88.45
2022-11-20T11:56:14.975Z,86.88
2022-11-20T11:57:42.657Z,82.78
2022-11-20T11:59:07.080Z,89.35
2022-11-20T12:00:27.984Z,84.40
2022-11-20T12:01:52.066Z,93.43
2022-11-20T12:03:17.086Z,94.53
2022-11-20T12:04:45.626Z,90.55
2022-11-20T12:06:11.454Z,90.13
2022-11-20T12:07:46.427Z,88.45
2022-11-20T12:09:11.087Z,91.95
2022-11-20T12:10:41.687Z,91.53
2022-11-20T12:12:08.966Z,94.20
2022-11-20T12:13:38.521Z,94.25
2022-11-20T12:14:59.773Z,99.18
2022-11-20T12:17:41.374Z,93.65
2022-11-20T12:19:02.049Z,98.77
2022-11-20T12:20:27.244Z,96.35
2022-11-20T12:22:00.035Z,96.07
2022-11-20T12:23:27.448Z,102.55
2022-11-20T12:24:55.052Z,87.85
2022-11-20T12:26:24.211Z,96.75
2022-11-20T12:27:52.888Z,96.38
2022-11-20T12:29:29.128Z,97.07
2022-11-20T12:30:59.645Z,96.97
2022-11-20T12:32:43.841Z,95.53
2022-11-20T12:34:14.478Z,101.82
2022-11-20T12:35:45.784Z,102.95
2022-11-20T12:37:15.217Z,98.80
2022-11-20T12:39:09.255Z,102.07
2022-11-20T12:40:36.703Z,110.45
2022-11-20T12:42:11.191Z,103.03
2022-11-20T12:43:34.495Z,104.85
2022-11-20T12:45:21.308Z,104.80
2022-11-20T12:46:46.045Z,96.13
2022-11-20T12:48:46.272Z,100.18
2022-11-20T12:50:12.283Z,101.68
2022-11-20T12:51:45.525Z,91.05
2022-11-20T12:53:08.766Z,89.60
2022-11-20T12:55:04.252Z,95.25
2022-11-20T12:56:32.541Z,94.70
2022-11-20T12:57:57.674Z,94.00
2022-11-20T12:59:28.862Z,89.68
2022-11-20T13:00:57.418Z,98.85
2022-11-20T13:02:26.759Z,97.03
2022-11-20T13:03:51.985Z,101.85
2022-11-20T13:05:21.091Z,93.68
2022-11-20T13:06:41.669Z,100.82
2022-11-20T13:08:02.800Z,93.13
2022-11-20T13:09:24.214Z,87.50
2022-11-20T13:10:50.744Z,98.85
2022-11-20T13:12:16.432Z,97.03
2022-11-20T13:13:44.374Z,108.15
2022-11-20T13:15:14.826Z,105.47
2022-11-20T13:16:39.597Z,104.25
2022-11-20T13:18:01.989Z,116.80
2022-11-20T13:19:23.048Z,122.15
2022-11-20T13:20:44.951Z,106.68
2022-11-20T13:22:05.276Z,101.78
2022-11-20T13:23:26.978Z,114.93
2022-11-20T13:24:51.803Z,110.57
2022-11-20T13:26:18.629Z,123.25
2022-11-20T13:27:48.130Z,115.95
2022-11-20T13:29:11.933Z,124.38
2022-11-20T13:30:32.948Z,113.07
2022-11-20T13:32:07.731Z,122.60
2022-11-20T13:33:32.586Z,135.73
2022-11-20T13:34:53.520Z,125.13
2022-11-20T13:36:24.373Z,115.28
2022-11-20T13:37:45.156Z,131.95
2022-11-20T13:39:05.589Z,124.05
2022-11-20T13:40:26.497Z,117.90
2022-11-20T13:41:55.644Z,134.52
2022-11-20T13:43:23.479Z,124.43
2022-11-20T13:44:47.754Z,145.10
2022-11-20T13:46:10.205Z,142.45
2022-11-20T13:47:32.207Z,146.20
2022-11-20T13:48:53.585Z,119.68
2022-11-20T13:50:15.502Z,146.02
2022-11-20T13:51:42.093Z,155.30
2022-11-20T13:53:09.113Z,127.68
2022-11-20T13:54:53.647Z,149.32
2022-11-20T13:56:23.095Z,139.43
2022-11-20T13:58:06.801Z,134.57
2022-11-20T13:59:37.172Z,116.82
2022-11-20T14:00:59.469Z,160.60
2022-11-20T14:02:22.056Z,138.57
2022-11-20T14:04:05.028Z,135.60
2022-11-20T14:06:46.560Z,144.82
2022-11-20T14:08:10.378Z,157.25
2022-11-20T14:09:32.948Z,145.18
2022-11-20T14:11:04.141Z,145.57
2022-11-20T14:12:29.714Z,160.75
2022-11-20T14:13:59.294Z,154.27
2022-11-20T14:15:27.294Z,161.40
2022-11-20T14:16:49.492Z,131.07
2022-11-20T14:18:14.766Z,137.50
2022-11-20T14:19:44.909Z,135.55
2022-11-20T14:21:05.796Z,175.75
2022-11-20T14:22:27.338Z,143.45
2022-11-20T14:23:47.823Z,127.38
2022-11-20T14:25:20.397Z,142.40
2022-11-20T14:26:43.387Z,146.07
2022-11-20T14:28:04.812Z,130.68
2022-11-20T14:30:49.255Z,147.10
2022-11-20T14:32:10.186Z,163.38
2022-11-20T14:33:33.594Z,170.73
2022-11-20T14:34:55.632Z,154.05
2022-11-20T14:36:18.592Z,181.02
2022-11-20T14:37:40.231Z,172.80
2022-11-20T14:39:00.581Z,164.52
2022-11-20T14:40:29.475Z,178.27
2022-11-20T14:41:52.355Z,182.52
2022-11-20T14:43:22.326Z,191.88
2022-11-20T14:44:43.451Z,175.18
2022-11-20T14:46:06.321Z,175.25
2022-11-20T14:47:30.712Z,167.32
2022-11-20T14:48:52.986Z,251.93
2022-11-20T14:50:19.146Z,178.23
2022-11-20T14:51:40.907Z,174.00
2022-11-20T14:53:02.111Z,145.50
2022-11-20T14:54:23.445Z,179.57
2022-11-20T14:55:44.323Z,175.68
2022-11-20T14:57:05.281Z,161.30
2022-11-20T14:58:27.400Z,158.00
2022-11-20T14:59:50.495Z,163.27
2022-11-20T15:01:47.083Z,183.75
2022-11-20T15:03:47.232Z,185.00
2022-11-20T15:05:24.704Z,200.65
2022-11-20T15:07:31.022Z,190.30
2022-11-20T15:08:55.226Z,224.57
2022-11-20T15:10:22.558Z,217.07
2022-11-20T15:11:54.172Z,189.52
2022-11-20T15:13:17.437Z,216.13
2022-11-20T15:14:38.149Z,196.85
2022-11-20T15:15:59.467Z,193.13
2022-11-20T15:17:20.119Z,193.07
2022-11-20T15:18:41.785Z,222.05
2022-11-20T15:21:24.173Z,192.27
2022-11-20T15:22:44.522Z,187.80
2022-11-20T15:24:09.608Z,228.57
2022-11-20T15:25:30.312Z,179.57
2022-11-20T15:26:50.881Z,220.60
2022-11-20T15:28:17.581Z,196.37
2022-11-20T15:29:38.192Z,212.18
2022-11-20T15:30:58.753Z,152.32
2022-11-20T15:32:19.312Z,146.23
2022-11-20T15:35:01.045Z,221.60
2022-11-20T15:36:21.254Z,173.05
2022-11-20T15:37:43.536Z,156.23
2022-11-20T15:39:04.160Z,219.70
2022-11-20T15:40:24.786Z,184.77
2022-11-20T15:41:45.113Z,232.18
2022-11-20T15:43:11.358Z,206.80
2022-11-20T15:44:33.740Z,274.75
2022-11-20T15:46:00.038Z,174.15
2022-11-20T15:47:21.904Z,187.10
2022-11-20T15:50:11.934Z,156.27
2022-11-20T15:51:34.777Z,186.20
2022-11-20T15:52:56.873Z,214.25
2022-11-20T15:54:19.066Z,151.18
2022-11-20T15:55:39.520Z,178.27
2022-11-20T15:57:00.239Z,157.18
2022-11-20T15:58:20.940Z,144.10
2022-11-20T15:59:41.587Z,162.27
2022-11-20T16:01:02.050Z,150.32
2022-11-20T16:02:22.526Z,172.32
2022-11-20T16:03:43.132Z,144.30
2022-11-20T16:05:04.551Z,150.38
2022-11-20T16:06:24.959Z,151.73
2022-11-20T16:07:45.557Z,178.30
2022-11-20T16:09:07.799Z,146.40
2022-11-20T16:10:28.579Z,175.05
2022-11-20T16:11:48.965Z,162.25
2022-11-20T16:13:14.320Z,178.73
2022-11-20T16:14:34.951Z,178.32
2022-11-20T16:15:58.940Z,166.38
2022-11-20T16:17:19.588Z,142.48
2022-11-20T16:18:40.252Z,152.43
2022-11-20T16:20:00.775Z,153.73
2022-11-20T16:21:21.572Z,125.50
2022-11-20T16:22:42.055Z,124.35
2022-11-20T16:24:04.942Z,142.23
2022-11-20T16:25:28.024Z,185.00
2022-11-20T16:26:48.433Z,123.00
2022-11-20T16:28:09.814Z,142.23
2022-11-20T16:29:31.774Z,171.32
2022-11-20T16:30:52.315Z,122.57
2022-11-20T16:32:12.957Z,128.02
2022-11-20T16:33:33.209Z,134.48
2022-11-20T16:34:53.660Z,156.27
2022-11-20T16:36:15.459Z,145.32
2022-11-20T16:37:36.076Z,191.75
2022-11-20T16:38:57.892Z,198.43
2022-11-20T16:40:18.572Z,221.10
2022-11-20T16:41:40.541Z,128.73
2022-11-20T16:43:08.999Z,126.32
2022-11-20T16:44:30.077Z,171.23
2022-11-20T16:45:50.277Z,112.35
2022-11-20T16:47:10.746Z,139.60
2022-11-20T16:48:31.255Z,160.35
2022-11-20T16:49:52.136Z,144.23
2022-11-20T16:51:13.222Z,154.50
2022-11-20T16:52:33.812Z,133.82
2022-11-20T16:53:55.964Z,157.88
2022-11-20T16:55:16.754Z,155.35
2022-11-20T16:56:37.590Z,135.13
2022-11-20T16:57:59.267Z,132.75
2022-11-20T16:59:19.889Z,183.68
2022-11-20T17:00:40.940Z,152.82
2022-11-20T17:02:01.582Z,118.57
2022-11-20T17:03:22.260Z,196.52
2022-11-20T17:04:43.259Z,112.30
2022-11-20T17:06:11.691Z,124.85
2022-11-20T17:07:31.963Z,119.47
2022-11-20T17:08:54.379Z,115.90
2022-11-20T17:10:14.727Z,148.50
2022-11-20T17:11:35.548Z,142.73
2022-11-20T17:12:56.376Z,127.05
2022-11-20T17:14:18.391Z,186.18
2022-11-20T17:15:39.137Z,152.57
2022-11-20T17:16:59.826Z,179.60
2022-11-20T17:18:20.450Z,117.80
2022-11-20T17:19:40.655Z,121.30
2022-11-20T17:21:01.600Z,121.45
2022-11-20T17:22:22.140Z,117.93
2022-11-20T17:23:44.252Z,97.28
2022-11-20T17:25:05.708Z,109.25
2022-11-20T17:26:26.073Z,101.75
2022-11-20T17:27:46.797Z,92.22
2022-11-20T17:29:09.803Z,122.90
2022-11-20T17:30:31.914Z,97.25
2022-11-20T17:31:54.080Z,123.45
2022-11-20T17:33:14.787Z,94.55
2022-11-20T17:34:35.543Z,96.63
2022-11-20T17:35:56.473Z,94.38
2022-11-20T17:37:16.928Z,125.30
2022-11-20T17:38:37.721Z,95.75
2022-11-20T17:39:59.480Z,115.72
2022-11-20T17:42:41.358Z,88.55
2022-11-20T17:44:01.913Z,112.65
2022-11-20T17:45:22.375Z,97.95
2022-11-20T17:46:44.298Z,103.95
2022-11-20T17:48:05.642Z,92.72
2022-11-20T17:49:26.504Z,100.15
2022-11-20T17:50:47.117Z,89.60
2022-11-20T17:52:07.346Z,84.70
2022-11-20T17:53:28.196Z,85.43
2022-11-20T17:54:48.583Z,88.03
2022-11-20T17:56:09.355Z,84.67
2022-11-20T17:57:29.888Z,96.82
2022-11-20T17:58:50.484Z,79.72
2022-11-20T18:00:12.272Z,85.30
2022-11-20T18:01:33.088Z,82.82
2022-11-20T18:02:55.558Z,82.43
2022-11-20T18:04:16.238Z,83.63
2022-11-20T18:05:36.760Z,96.53
2022-11-20T18:06:57.083Z,127.07
2022-11-20T18:08:17.681Z,73.45
2022-11-20T18:09:38.396Z,73.68